Time;durP1;ratioP1;P1;durP2;ratioP2;P2;SDS_P1;SDS_P2;PMS_P1;PMS_P2;Temp;Humidity;BMP_temperature;BMP_pressure;BME280_temperature;BME280_humidity;BME280_pressure;Samples;Min_cycle;Max_cycle;Signal;HPM_P1;HPM_P2
2022/02/15 16:44:38;;;;;;;21.08;10.75;;;5.00;65.80;;;;;;4898017;29;20111;-87
2022/02/15 16:47:10;;;;;;;19.42;11.15;;;5.00;66.10;;;;;;4912445;29;20044;-85
2022/02/15 16:49:37;;;;;;;21.48;11.85;;;4.90;66.60;;;;;;4894407;29;20055;-88
2022/02/15 16:52:03;;;;;;;22.10;12.02;;;4.90;67.00;;;;;;4886394;29;20036;-87
2022/02/15 16:54:29;;;;;;;22.45;12.32;;;4.90;67.40;;;;;;4872350;29;20075;-87
2022/02/15 16:56:55;;;;;;;20.65;12.05;;;4.80;67.60;;;;;;4906816;29;20024;-86
2022/02/15 16:59:48;;;;;;;19.65;11.27;;;4.80;68.20;;;;;;4886058;29;20024;-87
2022/02/15 17:02:17;;;;;;;22.48;11.27;;;4.80;69.70;;;;;;4902206;29;20048;-89
2022/02/15 17:04:44;;;;;;;19.33;11.02;;;4.70;69.50;;;;;;4885853;29;20039;-86
2022/02/15 17:07:09;;;;;;;22.92;10.75;;;4.70;68.90;;;;;;4901908;29;20368;-88
2022/02/15 17:09:39;;;;;;;15.98;10.40;;;4.70;69.50;;;;;;4887380;29;20039;-87
2022/02/15 17:12:06;;;;;;;17.42;10.10;;;4.70;68.60;;;;;;4887796;29;20087;-86
2022/02/15 17:14:33;;;;;;;20.88;11.07;;;4.70;69.60;;;;;;4885866;29;20079;-85
2022/02/15 17:17:00;;;;;;;18.17;10.93;;;4.70;69.40;;;;;;4886247;29;20482;-87
2022/02/15 17:19:26;;;;;;;17.42;9.65;;;4.70;69.50;;;;;;4888668;29;20028;-87
2022/02/15 17:21:53;;;;;;;16.30;8.77;;;4.70;70.00;;;;;;4905053;29;20072;-84
2022/02/15 17:24:19;;;;;;;16.17;9.20;;;4.70;70.20;;;;;;4884868;29;20035;-87
2022/02/15 17:26:45;;;;;;;15.93;8.98;;;4.60;70.40;;;;;;4887363;29;20056;-89
2022/02/15 17:29:12;;;;;;;15.82;9.68;;;4.60;70.60;;;;;;4886183;29;20044;-88
2022/02/15 17:31:38;;;;;;;18.67;9.63;;;4.50;70.40;;;;;;4887368;29;20169;-88
2022/02/15 17:34:07;;;;;;;16.48;9.05;;;4.50;70.40;;;;;;4903725;29;20111;-88
2022/02/15 17:36:34;;;;;;;16.88;8.80;;;4.50;71.70;;;;;;4886281;29;20044;-88
2022/02/15 17:38:59;;;;;;;19.27;8.68;;;4.50;71.30;;;;;;4886123;29;20028;-88
2022/02/15 17:41:25;;;;;;;14.63;8.30;;;4.40;71.60;;;;;;4889191;29;20506;-89
2022/02/15 17:43:51;;;;;;;16.38;9.52;;;4.40;71.50;;;;;;4901732;29;20087;-86
2022/02/15 17:46:17;;;;;;;15.15;8.85;;;4.40;71.60;;;;;;4888844;29;20039;-87
2022/02/15 17:48:44;;;;;;;13.20;7.45;;;4.40;72.00;;;;;;4888806;29;20032;-89
2022/02/15 17:51:10;;;;;;;13.88;8.50;;;4.40;71.90;;;;;;4887186;29;20036;-89
2022/02/15 17:53:37;;;;;;;14.27;8.02;;;4.40;72.70;;;;;;4886545;29;20154;-86
2022/02/15 17:56:04;;;;;;;14.38;8.32;;;4.40;72.10;;;;;;4887254;29;20091;-88
2022/02/15 17:58:30;;;;;;;14.35;8.70;;;4.40;72.00;;;;;;4905796;29;20024;-89
2022/02/15 18:00:56;;;;;;;14.63;8.13;;;4.40;71.80;;;;;;4889610;29;20035;-88
2022/02/15 18:03:22;;;;;;;14.73;8.70;;;4.40;71.60;;;;;;4894700;29;20028;-88
2022/02/15 18:05:49;;;;;;;17.55;9.18;;;4.40;71.30;;;;;;4890755;29;20039;-88
2022/02/15 18:08:15;;;;;;;15.68;8.80;;;4.40;71.30;;;;;;4885617;29;20036;-86
2022/02/15 18:10:42;;;;;;;16.42;7.90;;;4.40;71.70;;;;;;4888548;29;20040;-88
2022/02/15 18:13:15;;;;;;;14.00;7.18;;;4.40;71.70;;;;;;4886745;29;20063;-90
2022/02/15 18:15:41;;;;;;;15.00;8.10;;;4.40;71.80;;;;;;4904777;29;20050;-87
2022/02/15 18:18:10;;;;;;;11.07;7.20;;;4.40;72.70;;;;;;4893594;29;20390;-91
2022/02/15 18:20:37;;;;;;;11.95;7.10;;;4.40;72.80;;;;;;4901736;29;20044;-89
2022/02/15 18:23:03;;;;;;;11.05;6.07;;;4.30;73.00;;;;;;4887891;29;20042;-89
2022/02/15 18:25:28;;;;;;;13.82;7.20;;;4.30;73.00;;;;;;4887955;29;20028;-88
2022/02/15 18:27:54;;;;;;;12.73;7.18;;;4.20;74.80;;;;;;4884579;29;20487;-88
2022/02/15 18:30:20;;;;;;;11.50;7.18;;;4.20;74.60;;;;;;4909027;29;20422;-94
2022/02/15 18:32:46;;;;;;;48.83;25.90;;;4.10;75.10;;;;;;4888790;29;20032;-90
2022/02/15 18:35:13;;;;;;;29.48;13.98;;;4.00;76.30;;;;;;4892971;29;20035;-91
2022/02/15 18:37:40;;;;;;;22.85;11.35;;;4.00;76.30;;;;;;4892545;29;20040;-94
2022/02/15 18:40:07;;;;;;;19.90;9.63;;;3.90;76.20;;;;;;4918016;29;20050;-91
2022/02/15 18:42:33;;;;;;;16.85;9.30;;;3.90;75.90;;;;;;4891292;29;20552;-89
2022/02/15 18:45:00;;;;;;;13.70;7.90;;;3.80;76.20;;;;;;4902910;29;20055;-87
2022/02/15 18:47:29;;;;;;;15.25;7.55;;;3.80;76.00;;;;;;4883851;29;20044;-86
2022/02/15 18:49:56;;;;;;;12.40;7.32;;;3.70;76.50;;;;;;4896886;29;20099;-88
2022/02/15 18:52:22;;;;;;;11.23;6.60;;;3.70;76.10;;;;;;4905495;29;20494;-89
2022/02/15 18:54:51;;;;;;;12.38;6.70;;;3.70;75.70;;;;;;4910067;29;20098;-88
2022/02/15 18:58:04;;;;;;;14.38;6.80;;;3.70;75.90;;;;;;4900966;29;20031;-90
2022/02/15 19:00:29;;;;;;;12.95;7.22;;;3.70;76.70;;;;;;4906603;29;20099;-89
2022/02/15 19:02:55;;;;;;;13.13;6.90;;;3.60;76.50;;;;;;4916723;29;20391;-89
2022/02/15 19:05:21;;;;;;;14.45;7.97;;;3.60;76.90;;;;;;4899344;29;20038;-89
2022/02/15 19:07:48;;;;;;;14.15;7.32;;;3.50;78.10;;;;;;4909559;29;20059;-88
2022/02/15 19:10:17;;;;;;;13.18;7.47;;;3.40;77.80;;;;;;4897877;29;20035;-88
2022/02/15 19:12:43;;;;;;;12.63;7.03;;;3.40;78.00;;;;;;4903265;29;20033;-90
2022/02/15 19:15:12;;;;;;;10.43;6.90;;;3.30;77.50;;;;;;4899271;29;20510;-90
2022/02/15 19:17:39;;;;;;;13.88;6.78;;;3.30;77.90;;;;;;4897817;29;20025;-89
2022/02/15 19:20:07;;;;;;;14.40;7.55;;;3.20;77.90;;;;;;4896481;29;20033;-93
2022/02/15 19:22:33;;;;;;;30.52;15.27;;;3.20;78.20;;;;;;4897945;29;20501;-87
2022/02/15 19:25:00;;;;;;;21.38;10.68;;;3.10;78.50;;;;;;4898392;29;20091;-91
2022/02/15 19:27:26;;;;;;;16.83;8.63;;;3.10;78.50;;;;;;4893191;29;20081;-90
2022/02/15 19:29:53;;;;;;;15.27;8.30;;;3.10;78.30;;;;;;4899160;29;20475;-90
2022/02/15 19:32:20;;;;;;;16.90;8.63;;;3.00;78.40;;;;;;4898907;29;20084;-88
2022/02/15 19:34:46;;;;;;;14.30;7.85;;;3.00;78.50;;;;;;4916703;29;20031;-88
2022/02/15 19:37:15;;;;;;;13.93;7.45;;;2.90;78.30;;;;;;4899179;29;20039;-89
2022/02/15 19:39:41;;;;;;;11.52;6.72;;;2.90;78.50;;;;;;4905627;29;20040;-88
2022/02/15 19:42:07;;;;;;;11.32;6.70;;;2.90;78.30;;;;;;4903641;29;20040;-89
2022/02/15 19:44:36;;;;;;;10.90;6.28;;;2.90;78.30;;;;;;4900110;29;20052;-86
2022/02/15 19:47:05;;;;;;;12.60;6.72;;;2.80;78.00;;;;;;4885899;29;20040;-89
2022/02/15 19:49:37;;;;;;;10.70;6.45;;;2.70;78.20;;;;;;4903028;29;20037;-88
2022/02/15 19:52:04;;;;;;;10.20;6.20;;;2.60;78.00;;;;;;4885248;29;20037;-90
2022/02/15 19:54:29;;;;;;;9.23;6.18;;;2.60;78.60;;;;;;4878098;29;20036;-92
2022/02/15 19:57:02;;;;;;;11.25;6.20;;;2.50;79.00;;;;;;4918515;29;20363;-90
2022/02/15 19:59:32;;;;;;;11.52;6.70;;;2.40;78.30;;;;;;4898754;29;20087;-93
2022/02/15 20:01:58;;;;;;;13.15;7.20;;;2.30;78.70;;;;;;4898990;29;20083;-94
2022/02/15 20:04:24;;;;;;;13.60;7.45;;;2.30;78.90;;;;;;4888177;29;20120;-92
2022/02/15 20:06:50;;;;;;;12.75;7.47;;;2.30;79.60;;;;;;4904498;29;20055;-92
2022/02/15 20:09:16;;;;;;;11.20;7.10;;;2.20;80.40;;;;;;4914764;29;20035;-90
2022/02/15 20:11:42;;;;;;;12.57;6.68;;;2.20;80.00;;;;;;4898248;29;20036;-90
2022/02/15 20:14:09;;;;;;;10.10;6.22;;;2.20;79.90;;;;;;4887476;29;20323;-94
2022/02/15 20:16:37;;;;;;;10.73;6.68;;;2.10;80.10;;;;;;4905003;29;20063;-92
2022/02/15 20:19:07;;;;;;;9.48;6.20;;;2.00;80.70;;;;;;4888022;29;20031;-91
2022/02/15 20:21:33;;;;;;;12.05;7.05;;;2.00;80.20;;;;;;4903687;29;20025;-90
2022/02/15 20:23:59;;;;;;;13.98;7.55;;;2.00;81.60;;;;;;4909116;29;20024;-92
2022/02/15 20:26:25;;;;;;;15.32;7.25;;;1.90;80.70;;;;;;4891829;29;20376;-90
2022/02/15 20:28:51;;;;;;;16.05;7.90;;;1.90;81.10;;;;;;4892246;29;20028;-92
2022/02/15 20:31:16;;;;;;;14.77;7.30;;;1.90;80.90;;;;;;4908267;29;20025;-91
2022/02/15 20:33:43;;;;;;;15.43;7.40;;;1.80;81.10;;;;;;4891483;29;20040;-91
2022/02/15 20:36:09;;;;;;;11.45;6.40;;;1.80;81.00;;;;;;4894400;29;20036;-87
2022/02/15 20:38:48;;;;;;;11.25;6.18;;;1.80;81.20;;;;;;4913927;29;20032;-91
2022/02/15 20:41:19;;;;;;;11.68;6.25;;;1.70;81.50;;;;;;4893982;29;20041;-91
2022/02/15 20:43:49;;;;;;;14.23;6.65;;;1.70;81.70;;;;;;4898262;29;20036;-89
2022/02/15 20:46:15;;;;;;;15.88;8.18;;;1.60;81.30;;;;;;4890837;29;20036;-89
2022/02/15 20:48:40;;;;;;;17.83;8.93;;;1.60;82.10;;;;;;4892779;29;20059;-91
2022/02/15 20:51:09;;;;;;;19.00;9.27;;;1.50;81.70;;;;;;4893993;29;20383;-91
2022/02/15 20:53:36;;;;;;;19.67;9.57;;;1.50;81.90;;;;;;4897239;29;20035;-92
2022/02/15 20:56:04;;;;;;;16.60;9.32;;;1.40;82.50;;;;;;4894462;29;20043;-93
2022/02/15 21:02:12;;;;;;;30.60;15.70;;;1.30;85.40;;;;;;4850031;29;20031;-91
2022/02/15 21:04:39;;;;;;;24.63;11.65;;;1.30;85.20;;;;;;4903832;29;20041;-89
2022/02/15 21:07:05;;;;;;;18.10;9.15;;;1.20;85.40;;;;;;4904194;29;20035;-92
2022/02/15 21:09:32;;;;;;;14.90;8.18;;;1.20;84.40;;;;;;4913035;29;20039;-90
2022/02/15 21:11:59;;;;;;;15.20;7.80;;;1.30;85.20;;;;;;4920147;29;20039;-90
2022/02/15 21:14:25;;;;;;;10.82;6.47;;;1.20;85.20;;;;;;4918805;29;20387;-91
2022/02/15 21:16:52;;;;;;;12.65;6.63;;;1.30;85.60;;;;;;4893733;29;20068;-91
2022/02/15 21:19:24;;;;;;;9.93;6.18;;;1.30;85.70;;;;;;4897281;29;20435;-92
2022/02/15 21:21:50;;;;;;;13.20;6.70;;;1.30;84.10;;;;;;4895365;29;20029;-92
2022/02/15 21:24:17;;;;;;;13.90;7.28;;;1.30;84.20;;;;;;4895080;29;20114;-91
2022/02/15 21:26:43;;;;;;;13.98;8.40;;;1.30;83.70;;;;;;4913405;29;20032;-91
2022/02/15 21:29:09;;;;;;;14.60;7.88;;;1.20;83.90;;;;;;4911380;29;20032;-89
2022/02/15 21:31:36;;;;;;;14.38;7.90;;;1.20;84.10;;;;;;4902250;29;20040;-90
2022/02/15 21:34:04;;;;;;;16.02;8.18;;;1.20;83.90;;;;;;4899793;29;20028;-90
2022/02/15 21:36:30;;;;;;;13.90;7.63;;;1.20;83.80;;;;;;4911123;29;20039;-91
2022/02/15 21:38:56;;;;;;;18.73;8.88;;;1.20;83.50;;;;;;4913215;29;20084;-87
2022/02/15 21:41:21;;;;;;;14.27;8.65;;;1.10;84.20;;;;;;4921473;29;20068;-92
2022/02/15 21:43:48;;;;;;;17.60;8.82;;;1.10;83.30;;;;;;4904753;29;20055;-92
2022/02/15 21:46:14;;;;;;;18.27;9.38;;;1.10;83.40;;;;;;4906349;29;20028;-91
2022/02/15 21:48:41;;;;;;;16.65;8.45;;;1.10;83.20;;;;;;4906773;29;20459;-88
2022/02/15 21:51:06;;;;;;;18.13;9.77;;;1.10;83.60;;;;;;4910422;29;20100;-93
2022/02/15 21:53:33;;;;;;;19.65;10.73;;;1.10;85.00;;;;;;4897339;29;20028;-92
2022/02/15 21:55:58;;;;;;;24.40;12.45;;;1.20;84.20;;;;;;4920859;29;20059;-84
2022/02/15 21:58:28;;;;;;;24.42;14.52;;;1.20;85.60;;;;;;4902982;29;20107;-90
2022/02/15 22:00:54;;;;;;;23.60;13.57;;;1.30;85.70;;;;;;4909715;29;20387;-90
2022/02/15 22:03:21;;;;;;;29.95;15.70;;;1.30;85.30;;;;;;4899823;29;20024;-91
2022/02/15 22:05:51;;;;;;;32.08;17.05;;;1.40;86.20;;;;;;4886671;29;20136;-91
2022/02/15 22:08:21;;;;;;;29.10;15.60;;;1.40;87.40;;;;;;4885899;29;20044;-92
2022/02/15 22:10:47;;;;;;;31.45;15.20;;;1.40;86.80;;;;;;4885058;29;20084;-91
2022/02/15 22:13:15;;;;;;;33.35;17.33;;;1.40;86.50;;;;;;4901334;29;20064;-92
2022/02/15 22:15:48;;;;;;;33.38;17.75;;;1.40;87.90;;;;;;4885474;29;20036;-90
2022/02/15 22:18:14;;;;;;;33.22;16.73;;;1.40;90.00;;;;;;4901729;29;20113;-90
2022/02/15 22:20:42;;;;;;;37.25;17.67;;;1.40;87.60;;;;;;4884757;29;20029;-88
2022/02/15 22:23:09;;;;;;;40.08;19.52;;;1.50;88.50;;;;;;4885956;29;20024;-88
2022/02/15 22:25:36;;;;;;;32.42;17.48;;;1.50;88.40;;;;;;4884329;29;20064;-89
2022/02/15 22:28:03;;;;;;;27.05;15.38;;;1.60;86.80;;;;;;4903697;29;20037;-88
2022/02/15 22:30:32;;;;;;;33.08;17.52;;;1.60;87.70;;;;;;4886500;29;20037;-89
2022/02/15 22:32:58;;;;;;;33.78;17.48;;;1.70;87.80;;;;;;4900141;29;20107;-89
2022/02/15 22:35:24;;;;;;;27.85;14.98;;;1.70;87.10;;;;;;4900671;29;20550;-89
2022/02/15 22:37:49;;;;;;;31.25;17.33;;;1.80;86.50;;;;;;4900475;29;20025;-88
2022/02/15 22:40:17;;;;;;;28.20;14.93;;;1.80;87.50;;;;;;4883061;29;20036;-88
2022/02/15 22:42:44;;;;;;;26.55;14.65;;;1.90;86.10;;;;;;4882508;29;20474;-87
2022/02/15 22:45:10;;;;;;;26.63;14.00;;;1.90;85.20;;;;;;4899145;29;20040;-88
2022/02/15 22:47:42;;;;;;;32.17;15.27;;;2.00;85.20;;;;;;4882734;29;20048;-88
2022/02/15 22:50:08;;;;;;;27.70;14.18;;;2.00;86.50;;;;;;4899662;29;20032;-88
2022/02/15 22:52:35;;;;;;;30.40;14.63;;;2.00;85.50;;;;;;4899531;29;20051;-89
2022/02/15 22:55:02;;;;;;;29.65;14.23;;;2.10;84.90;;;;;;4900990;29;20092;-88
2022/02/15 22:57:30;;;;;;;20.48;11.50;;;2.10;84.60;;;;;;4902655;29;20036;-88
2022/02/15 22:59:57;;;;;;;23.80;12.48;;;2.10;84.60;;;;;;4882930;29;20391;-88
2022/02/15 23:02:23;;;;;;;23.13;11.65;;;2.10;84.90;;;;;;4899746;29;20028;-90
2022/02/15 23:18:31;;;;;;;18.38;10.32;;;2.10;85.20;;;;;;4899584;29;20506;-90
2022/02/15 23:20:57;;;;;;;16.98;9.75;;;2.10;87.10;;;;;;4882131;29;20036;-89
2022/02/15 23:23:23;;;;;;;14.15;8.88;;;2.10;86.90;;;;;;4901721;29;20093;-90
2022/02/15 23:25:49;;;;;;;14.15;8.95;;;2.10;86.50;;;;;;4888412;29;20037;-91
2022/02/15 23:28:15;;;;;;;14.50;9.02;;;2.10;85.70;;;;;;4898773;29;20744;-90
2022/02/15 23:30:43;;;;;;;14.68;9.07;;;2.00;85.50;;;;;;4881848;29;20472;-88
2022/02/15 23:33:10;;;;;;;15.35;9.32;;;2.00;85.60;;;;;;4882990;29;20029;-90
2022/02/15 23:35:37;;;;;;;18.70;10.68;;;1.90;85.50;;;;;;4882725;29;20025;-90
2022/02/15 23:38:04;;;;;;;19.25;11.63;;;1.80;85.90;;;;;;4881939;29;20033;-90
2022/02/15 23:40:30;;;;;;;25.33;15.05;;;1.70;85.70;;;;;;4898403;29;20203;-91
2022/02/15 23:42:56;;;;;;;29.98;16.88;;;1.70;87.10;;;;;;4881808;29;20025;-90
2022/02/15 23:45:22;;;;;;;30.02;16.52;;;1.60;87.30;;;;;;4899720;29;20523;-90
2022/02/15 23:47:48;;;;;;;32.55;16.88;;;1.50;87.30;;;;;;4867057;29;20405;-89
2022/02/15 23:50:15;;;;;;;34.10;17.42;;;1.40;86.70;;;;;;4901638;29;20033;-90
2022/02/15 23:52:41;;;;;;;37.50;18.42;;;1.30;86.90;;;;;;4887862;29;20036;-88
2022/02/15 23:55:12;;;;;;;39.22;18.23;;;1.20;89.60;;;;;;4883207;29;20036;-90
2022/02/15 23:57:38;;;;;;;30.60;14.77;;;1.20;89.70;;;;;;4888901;29;20032;-89
